Time;durP1;ratioP1;P1;durP2;ratioP2;P2;SDS_P1;SDS_P2;PMS_P1;PMS_P2;Temp;Humidity;BMP_temperature;BMP_pressure;BME280_temperature;BME280_humidity;BME280_pressure;Samples;Min_cycle;Max_cycle;Signal;HPM_P1;HPM_P2
2023/06/20 00:01:11;;;;;;;;;;;;;;;19.77;67.69;99882.22;4484694;31;34013;-84
2023/06/20 00:03:39;;;;;;;;;;;;;;;19.73;68.14;99882.19;4488462;31;32464;-84
2023/06/20 00:06:06;;;;;;;;;;;;;;;19.74;68.06;99882.22;4489099;31;33843;-84
2023/06/20 00:08:33;;;;;;;;;;;;;;;19.76;68.10;99883.12;4486742;31;34711;-85
2023/06/20 00:11:01;;;;;;;;;;;;;;;19.53;69.19;99879.34;4482521;31;34955;-84
2023/06/20 00:13:28;;;;;;;;;;;;;;;19.52;69.29;99885.47;4482877;32;33182;-84
2023/06/20 00:15:57;;;;;;;;;;;;;;;19.37;69.88;99887.09;4485730;31;34849;-85
2023/06/20 00:18:25;;;;;;;;;;;;;;;19.26;70.08;99883.47;4486795;31;33975;-84
2023/06/20 00:20:53;;;;;;;;;;;;;;;19.14;70.39;99888.56;4488839;31;34040;-84
2023/06/20 00:23:21;;;;;;;;;;;;;;;19.15;70.60;99885.09;4492440;31;33354;-84
2023/06/20 00:25:49;;;;;;;;;;;;;;;19.10;70.90;99889.41;4494915;31;34947;-84
2023/06/20 00:28:17;;;;;;;;;;;;;;;19.45;69.45;99890.69;4489156;31;34038;-85
2023/06/20 00:30:44;;;;;;;;;;;;;;;19.44;69.81;99883.62;4494591;31;33719;-85
2023/06/20 00:33:12;;;;;;;;;;;;;;;19.37;70.26;99891.44;4486870;31;32627;-85
2023/06/20 00:35:39;;;;;;;;;;;;;;;19.35;70.36;99888.78;4470806;31;34218;-84
2023/06/20 00:38:06;;;;;;;;;;;;;;;19.26;70.86;99893.97;4491456;31;34076;-84
2023/06/20 00:40:34;;;;;;;;;;;;;;;19.17;71.13;99883.38;4493196;31;34250;-84
2023/06/20 00:43:01;;;;;;;;;;;;;;;19.12;71.52;99879.78;4487493;31;34100;-84
2023/06/20 00:45:30;;;;;;;;;;;;;;;18.92;72.30;99883.06;4482160;31;35410;-84
2023/06/20 00:47:59;;;;;;;;;;;;;;;18.82;72.66;99887.31;4489693;31;34007;-84
2023/06/20 00:50:27;;;;;;;;;;;;;;;18.79;73.00;99889.84;4490747;31;34180;-83
2023/06/20 00:52:59;;;;;;;;;;;;;;;18.64;73.87;99893.19;4484131;31;33698;-84
2023/06/20 00:55:27;;;;;;;;;;;;;;;18.69;73.81;99890.59;4496605;31;34192;-84
2023/06/20 00:57:55;;;;;;;;;;;;;;;18.92;72.70;99887.44;4490830;31;34943;-84
2023/06/20 01:00:23;;;;;;;;;;;;;;;18.98;72.50;99883.12;4490960;31;34944;-84
2023/06/20 01:02:52;;;;;;;;;;;;;;;19.61;69.97;99890.81;4494943;31;33727;-84
2023/06/20 01:05:26;;;;;;;;;;;;;;;19.59;70.24;99887.31;4486512;31;33877;-85
2023/06/20 01:07:57;;;;;;;;;;;;;;;19.30;71.36;99879.13;4493211;31;34094;-85
2023/06/20 01:10:27;;;;;;;;;;;;;;;19.11;72.27;99888.53;4482188;31;32184;-84
2023/06/20 01:12:59;;;;;;;;;;;;;;;19.22;71.95;99893.06;4475794;31;32531;-84
2023/06/20 01:15:28;;;;;;;;;;;;;;;19.27;71.77;99892.22;4488202;31;34079;-84
2023/06/20 01:17:56;;;;;;;;;;;;;;;19.23;72.02;99893.94;4476947;31;33487;-84
2023/06/20 01:20:28;;;;;;;;;;;;;;;19.24;71.88;99885.19;4492866;31;34072;-85
2023/06/20 01:22:59;;;;;;;;;;;;;;;19.25;72.11;99892.19;4483397;31;32997;-84
2023/06/20 01:25:46;;;;;;;;;;;;;;;19.35;71.72;99894.03;4488204;31;34345;-84
2023/06/20 01:28:23;;;;;;;;;;;;;;;19.51;71.19;99894.22;4493693;31;33927;-84
2023/06/20 01:31:09;;;;;;;;;;;;;;;19.33;72.00;99889.66;4491891;31;34393;-84
2023/06/20 01:33:44;;;;;;;;;;;;;;;18.91;73.46;99893.53;4475097;31;33312;-84
2023/06/20 01:36:11;;;;;;;;;;;;;;;18.77;73.90;99888.09;4493783;31;34922;-85
2023/06/20 01:38:38;;;;;;;;;;;;;;;18.57;74.61;99896.56;4481094;31;33762;-84
2023/06/20 01:41:06;;;;;;;;;;;;;;;19.88;69.56;99900.75;4474229;31;32010;-84
2023/06/20 01:43:33;;;;;;;;;;;;;;;20.13;68.50;99893.94;4487196;31;32721;-85
2023/06/20 01:46:02;;;;;;;;;;;;;;;20.58;66.90;99887.19;4468434;31;33341;-85
2023/06/20 01:48:29;;;;;;;;;;;;;;;20.59;66.67;99886.37;4481788;31;34902;-85
2023/06/20 01:50:57;;;;;;;;;;;;;;;20.62;66.40;99886.34;4482572;31;34368;-84
2023/06/20 01:53:24;;;;;;;;;;;;;;;20.51;66.61;99885.38;4473197;31;33537;-84
2023/06/20 01:55:53;;;;;;;;;;;;;;;20.78;66.04;99881.16;4491586;31;35184;-85
2023/06/20 01:58:21;;;;;;;;;;;;;;;20.76;66.46;99877.66;4478675;31;34979;-84
2023/06/20 02:00:48;;;;;;;;;;;;;;;20.68;66.72;99879.37;4482099;31;33729;-84
2023/06/20 02:03:16;;;;;;;;;;;;;;;21.06;64.93;99881.31;4474685;31;33325;-84
2023/06/20 02:05:44;;;;;;;;;;;;;;;21.16;64.33;99877.81;4482555;31;32478;-84
2023/06/20 02:08:11;;;;;;;;;;;;;;;20.91;64.62;99869.81;4475537;31;34114;-84
2023/06/20 02:10:39;;;;;;;;;;;;;;;20.74;65.18;99874.13;4476082;32;34077;-84
2023/06/20 02:13:06;;;;;;;;;;;;;;;20.74;65.14;99879.41;4461403;31;33556;-85
2023/06/20 02:15:35;;;;;;;;;;;;;;;20.73;65.40;99877.66;4497949;31;33963;-84
2023/06/20 02:18:02;;;;;;;;;;;;;;;20.97;64.25;99888.28;4479474;31;35131;-84
2023/06/20 02:20:30;;;;;;;;;;;;;;;20.94;64.60;99880.38;4488408;31;34254;-85
2023/06/20 02:22:57;;;;;;;;;;;;;;;20.43;66.22;99884.47;4497234;31;33106;-84
2023/06/20 02:25:26;;;;;;;;;;;;;;;20.64;65.73;99885.50;4470464;31;32339;-85
2023/06/20 02:27:54;;;;;;;;;;;;;;;20.52;66.04;99891.56;4474282;32;34118;-84
2023/06/20 02:30:25;;;;;;;;;;;;;;;19.82;68.45;99891.03;4478266;31;34293;-84
2023/06/20 02:32:53;;;;;;;;;;;;;;;19.48;70.45;99899.44;4475953;32;33739;-84
2023/06/20 02:35:21;;;;;;;;;;;;;;;19.65;69.80;99896.09;4473088;32;34146;-83
2023/06/20 02:37:48;;;;;;;;;;;;;;;19.57;70.27;99904.81;4485400;31;33549;-84
2023/06/20 02:40:16;;;;;;;;;;;;;;;19.18;72.12;99908.75;4471441;32;34380;-84
2023/06/20 02:42:43;;;;;;;;;;;;;;;18.95;73.42;99909.37;4480914;31;32867;-84
2023/06/20 02:45:12;;;;;;;;;;;;;;;18.88;73.72;99907.50;4487528;31;34308;-84
2023/06/20 02:47:43;;;;;;;;;;;;;;;19.02;73.33;99903.31;4485457;31;35126;-84
2023/06/20 02:50:16;;;;;;;;;;;;;;;18.69;74.89;99905.47;4471577;32;33314;-84
2023/06/20 02:52:44;;;;;;;;;;;;;;;19.44;71.66;99899.41;4485234;31;33427;-84
2023/06/20 02:55:20;;;;;;;;;;;;;;;19.53;71.20;99901.25;4486967;31;34788;-84
2023/06/20 02:57:50;;;;;;;;;;;;;;;19.05;73.04;99905.09;4485935;31;35308;-84
2023/06/20 03:00:17;;;;;;;;;;;;;;;19.61;70.63;99909.22;4484951;31;33923;-84
2023/06/20 03:02:55;;;;;;;;;;;;;;;19.67;70.58;99906.66;4489864;31;33209;-84
2023/06/20 03:05:23;;;;;;;;;;;;;;;19.40;71.67;99912.50;4474132;31;33449;-83
2023/06/20 03:07:51;;;;;;;;;;;;;;;19.13;72.70;99910.44;4477562;32;34571;-84
2023/06/20 03:10:18;;;;;;;;;;;;;;;19.21;72.39;99916.66;4485201;31;34283;-84
2023/06/20 03:12:46;;;;;;;;;;;;;;;19.22;72.27;99918.44;4493236;31;33350;-84
2023/06/20 03:15:13;;;;;;;;;;;;;;;19.58;70.71;99917.06;4471105;31;34551;-84
2023/06/20 03:17:40;;;;;;;;;;;;;;;19.49;71.16;99920.50;4485291;31;33988;-84
2023/06/20 03:20:09;;;;;;;;;;;;;;;19.59;70.98;99924.09;4488813;31;35373;-84
2023/06/20 03:22:37;;;;;;;;;;;;;;;19.09;73.37;99927.03;4491106;31;33453;-84
2023/06/20 03:25:05;;;;;;;;;;;;;;;19.16;73.13;99927.13;4486232;31;34991;-83
2023/06/20 03:27:33;;;;;;;;;;;;;;;20.01;69.96;99930.63;4470967;32;32348;-84
2023/06/20 03:30:02;;;;;;;;;;;;;;;20.50;67.61;99928.38;4488417;31;34894;-83
2023/06/20 03:32:31;;;;;;;;;;;;;;;19.69;70.52;99930.31;4485858;31;33355;-84
2023/06/20 03:34:58;;;;;;;;;;;;;;;19.15;72.88;99937.59;4485258;32;33875;-84
2023/06/20 03:37:26;;;;;;;;;;;;;;;19.10;73.04;99934.03;4497878;31;34972;-84
2023/06/20 03:39:53;;;;;;;;;;;;;;;18.74;74.54;99940.53;4485410;32;33809;-84
2023/06/20 03:42:21;;;;;;;;;;;;;;;18.77;74.85;99945.81;4485616;31;33347;-84
2023/06/20 03:44:48;;;;;;;;;;;;;;;19.16;73.55;99944.59;4484947;32;34934;-83
2023/06/20 03:47:15;;;;;;;;;;;;;;;18.92;74.38;99946.06;4484655;31;34814;-84
2023/06/20 03:49:43;;;;;;;;;;;;;;;18.74;75.26;99951.03;4482574;32;34327;-84
2023/06/20 03:52:12;;;;;;;;;;;;;;;18.52;76.63;99950.72;4490282;31;33478;-84
2023/06/20 03:54:40;;;;;;;;;;;;;;;18.70;76.13;99954.44;4487681;31;34218;-84
2023/06/20 03:57:08;;;;;;;;;;;;;;;19.12;73.87;99945.44;4496022;31;33794;-84
2023/06/20 03:59:35;;;;;;;;;;;;;;;18.97;74.81;99949.63;4487944;31;34826;-84
2023/06/20 04:02:04;;;;;;;;;;;;;;;18.64;76.94;99947.41;4497087;31;33406;-83
2023/06/20 04:04:31;;;;;;;;;;;;;;;18.73;76.87;99944.00;4488752;31;34731;-84
2023/06/20 04:06:59;;;;;;;;;;;;;;;18.83;76.48;99946.84;4491957;31;34881;-85
2023/06/20 04:09:26;;;;;;;;;;;;;;;18.81;76.95;99950.28;4483352;31;32528;-83
2023/06/20 04:11:54;;;;;;;;;;;;;;;19.44;75.02;99945.81;4490695;31;33615;-84
2023/06/20 04:14:21;;;;;;;;;;;;;;;19.83;73.12;99940.09;4472149;32;33957;-84
2023/06/20 04:16:49;;;;;;;;;;;;;;;19.64;74.11;99946.00;4484772;32;33939;-84
2023/06/20 04:19:17;;;;;;;;;;;;;;;19.66;74.18;99941.66;4496216;31;34134;-85
2023/06/20 04:21:44;;;;;;;;;;;;;;;19.58;74.12;99938.06;4489140;31;33845;-84
2023/06/20 04:24:12;;;;;;;;;;;;;;;19.91;72.45;99939.31;4491324;31;33971;-85
2023/06/20 04:26:39;;;;;;;;;;;;;;;20.06;71.16;99936.81;4491863;31;34273;-85
2023/06/20 04:29:07;;;;;;;;;;;;;;;20.22;70.95;99933.44;4473435;31;34298;-84
2023/06/20 04:31:35;;;;;;;;;;;;;;;20.74;68.58;99939.94;4486379;31;33374;-84
2023/06/20 04:34:03;;;;;;;;;;;;;;;21.14;67.31;99926.97;4473258;32;34349;-85
2023/06/20 04:36:34;;;;;;;;;;;;;;;21.83;65.87;99935.09;4484344;31;35016;-84
2023/06/20 04:39:04;;;;;;;;;;;;;;;21.49;66.76;99928.88;4473771;32;34176;-84
2023/06/20 04:41:33;;;;;;;;;;;;;;;21.27;67.37;99934.06;4484596;31;33443;-85
2023/06/20 04:44:00;;;;;;;;;;;;;;;21.53;66.10;99935.91;4494633;31;33775;-84
2023/06/20 04:46:28;;;;;;;;;;;;;;;21.35;66.45;99942.84;4487756;31;35101;-85
2023/06/20 04:48:55;;;;;;;;;;;;;;;21.29;67.04;99936.69;4489933;31;33781;-85
2023/06/20 04:51:22;;;;;;;;;;;;;;;22.14;65.04;99946.53;4487413;31;33357;-85
2023/06/20 04:53:53;;;;;;;;;;;;;;;22.60;64.02;99943.00;4483553;31;33710;-85
2023/06/20 04:56:22;;;;;;;;;;;;;;;22.69;63.88;99937.69;4491370;31;34235;-85
2023/06/20 04:58:50;;;;;;;;;;;;;;;22.73;63.80;99941.19;4491043;31;33884;-85
2023/06/20 05:01:17;;;;;;;;;;;;;;;22.58;63.98;99947.41;4495160;31;34109;-84
2023/06/20 05:03:46;;;;;;;;;;;;;;;22.13;64.91;99941.25;4493436;31;33642;-84
2023/06/20 05:06:19;;;;;;;;;;;;;;;21.58;67.48;99945.59;4476531;31;32617;-85
2023/06/20 05:08:46;;;;;;;;;;;;;;;21.25;68.66;99953.34;4491103;31;34569;-85
2023/06/20 05:11:14;;;;;;;;;;;;;;;21.59;67.47;99951.72;4491226;31;34348;-85
2023/06/20 05:13:41;;;;;;;;;;;;;;;22.17;65.47;99956.19;4498328;31;34087;-85
2023/06/20 05:16:08;;;;;;;;;;;;;;;22.85;63.34;99957.03;4491188;31;33947;-85
2023/06/20 05:18:36;;;;;;;;;;;;;;;23.35;61.93;99948.06;4482386;31;33944;-85
2023/06/20 05:21:03;;;;;;;;;;;;;;;23.58;61.06;99951.44;4491210;31;33043;-85
2023/06/20 05:23:30;;;;;;;;;;;;;;;23.68;60.94;99950.50;4487219;31;34195;-85
2023/06/20 05:25:58;;;;;;;;;;;;;;;23.64;59.46;99949.66;4489620;31;34905;-85
2023/06/20 05:28:25;;;;;;;;;;;;;;;23.59;59.71;99951.44;4492458;31;34166;-85
2023/06/20 05:30:52;;;;;;;;;;;;;;;23.83;58.67;99957.50;4493889;31;34018;-85
2023/06/20 05:33:20;;;;;;;;;;;;;;;23.96;58.20;99951.22;4493931;31;34827;-85
2023/06/20 05:35:47;;;;;;;;;;;;;;;23.72;59.30;99957.50;4496848;31;33753;-84
2023/06/20 05:38:15;;;;;;;;;;;;;;;23.73;58.67;99954.87;4486805;31;34278;-84
2023/06/20 05:40:43;;;;;;;;;;;;;;;23.90;58.15;99961.84;4489812;31;32057;-85
2023/06/20 05:43:10;;;;;;;;;;;;;;;23.98;58.32;99960.03;4493119;31;34522;-85
2023/06/20 05:45:37;;;;;;;;;;;;;;;24.37;57.35;99965.88;4485506;31;34085;-85
2023/06/20 05:48:08;;;;;;;;;;;;;;;24.25;57.53;99968.63;4491539;31;34368;-85
2023/06/20 05:50:36;;;;;;;;;;;;;;;24.34;57.26;99965.91;4491978;31;33637;-86
2023/06/20 05:53:03;;;;;;;;;;;;;;;23.73;60.10;99968.09;4497067;31;33765;-84
2023/06/20 05:55:30;;;;;;;;;;;;;;;24.16;58.33;99968.72;4488201;31;34109;-85
2023/06/20 05:57:58;;;;;;;;;;;;;;;24.16;58.56;99963.41;4489093;31;34459;-85
2023/06/20 06:00:25;;;;;;;;;;;;;;;23.89;59.93;99965.38;4497165;31;34222;-85
2023/06/20 06:02:53;;;;;;;;;;;;;;;23.02;63.70;99961.34;4486430;31;33776;-85
2023/06/20 06:05:20;;;;;;;;;;;;;;;23.85;61.63;99968.94;4488223;31;33859;-86
2023/06/20 06:07:47;;;;;;;;;;;;;;;24.28;60.23;99968.59;4493107;31;34819;-85
2023/06/20 06:10:16;;;;;;;;;;;;;;;24.84;59.19;99964.56;4492244;31;33962;-85
2023/06/20 06:12:44;;;;;;;;;;;;;;;24.89;58.94;99965.38;4482190;31;34284;-84
2023/06/20 06:15:13;;;;;;;;;;;;;;;25.02;58.14;99965.25;4486266;31;34802;-81
2023/06/20 06:17:41;;;;;;;;;;;;;;;25.04;58.06;99966.97;4495831;31;34274;-84
2023/06/20 06:20:11;;;;;;;;;;;;;;;25.19;57.55;99965.03;4485514;32;34339;-84
2023/06/20 06:22:39;;;;;;;;;;;;;;;25.45;57.26;99962.09;4485551;31;34284;-85
2023/06/20 06:25:09;;;;;;;;;;;;;;;25.35;57.78;99965.78;4474804;31;34934;-86
2023/06/20 06:27:36;;;;;;;;;;;;;;;25.46;56.61;99969.16;4488314;31;33170;-85
2023/06/20 06:30:04;;;;;;;;;;;;;;;25.74;56.28;99976.72;4485553;31;33837;-86
2023/06/20 06:32:33;;;;;;;;;;;;;;;26.05;55.52;99985.13;4491315;31;34785;-85
2023/06/20 06:35:00;;;;;;;;;;;;;;;26.46;53.60;99986.19;4480258;31;34081;-85
2023/06/20 06:37:27;;;;;;;;;;;;;;;26.13;54.28;99987.66;4480518;32;33500;-85
2023/06/20 06:40:01;;;;;;;;;;;;;;;26.52;53.40;99985.22;4494632;31;33444;-85
2023/06/20 06:42:29;;;;;;;;;;;;;;;26.36;53.18;99987.28;4467077;31;34014;-86
2023/06/20 06:44:56;;;;;;;;;;;;;;;26.29;52.38;99973.25;4499680;31;34479;-85
2023/06/20 06:47:23;;;;;;;;;;;;;;;26.62;52.44;99968.28;4490565;31;33790;-85
2023/06/20 06:49:50;;;;;;;;;;;;;;;26.62;51.92;99976.25;4495640;31;33286;-86
2023/06/20 06:52:18;;;;;;;;;;;;;;;27.03;50.50;99971.91;4492020;31;33816;-86
2023/06/20 06:54:45;;;;;;;;;;;;;;;27.02;50.83;99967.47;4476974;31;34061;-85
2023/06/20 06:57:12;;;;;;;;;;;;;;;26.94;49.98;99977.41;4473418;31;33695;-86
2023/06/20 06:59:40;;;;;;;;;;;;;;;27.14;49.31;99972.56;4481607;31;31578;-85
2023/06/20 07:02:07;;;;;;;;;;;;;;;27.63;48.52;99976.84;4491561;31;34112;-86
2023/06/20 07:04:35;;;;;;;;;;;;;;;27.32;48.65;99976.66;4490281;31;33930;-86
2023/06/20 07:07:02;;;;;;;;;;;;;;;27.49;48.83;99976.28;4488262;31;34573;-86
2023/06/20 07:09:30;;;;;;;;;;;;;;;27.65;48.05;99983.00;4493639;31;34041;-86
2023/06/20 07:11:57;;;;;;;;;;;;;;;28.07;47.92;99983.84;4460154;31;35139;-85
2023/06/20 07:14:26;;;;;;;;;;;;;;;27.95;47.96;99985.94;4488814;31;34818;-86
2023/06/20 07:16:53;;;;;;;;;;;;;;;28.06;47.27;99990.09;4473233;32;33728;-86
2023/06/20 07:19:32;;;;;;;;;;;;;;;28.29;46.26;99995.75;4484942;32;33873;-86
2023/06/20 07:22:00;;;;;;;;;;;;;;;28.68;46.21;99998.31;4485472;31;34131;-86
2023/06/20 07:24:27;;;;;;;;;;;;;;;28.74;45.16;99991.94;4486842;31;33896;-86
2023/06/20 07:26:54;;;;;;;;;;;;;;;28.63;46.43;99998.44;4485202;31;34884;-85
2023/06/20 07:29:22;;;;;;;;;;;;;;;29.03;43.98;99996.47;4488824;31;33133;-86
2023/06/20 07:31:49;;;;;;;;;;;;;;;28.88;44.08;99996.91;4485388;31;34786;-87
2023/06/20 07:34:16;;;;;;;;;;;;;;;29.26;43.40;100003.84;4485806;31;33826;-86
2023/06/20 07:36:44;;;;;;;;;;;;;;;29.68;42.75;100002.63;4487201;31;35127;-85
2023/06/20 07:39:12;;;;;;;;;;;;;;;30.14;42.03;100001.22;4494676;31;33756;-81
2023/06/20 07:41:39;;;;;;;;;;;;;;;30.42;41.75;100000.31;4484263;31;33972;-87
2023/06/20 07:44:08;;;;;;;;;;;;;;;30.64;38.21;100001.34;4484802;31;33930;-86
2023/06/20 07:46:35;;;;;;;;;;;;;;;31.02;38.71;99999.09;4491886;31;34057;-86
2023/06/20 07:49:02;;;;;;;;;;;;;;;31.15;38.17;100002.22;4488031;31;33846;-88
2023/06/20 07:51:33;;;;;;;;;;;;;;;31.59;36.34;100004.19;4486107;31;34030;-87
2023/06/20 07:54:00;;;;;;;;;;;;;;;31.97;35.53;100001.78;4470975;32;34834;-88
2023/06/20 07:56:28;;;;;;;;;;;;;;;32.87;33.47;99999.81;4487729;31;34186;-87
2023/06/20 07:58:55;;;;;;;;;;;;;;;33.27;32.66;100000.75;4474341;31;33365;-88
2023/06/20 08:01:23;;;;;;;;;;;;;;;34.20;32.16;100005.31;4493194;31;34949;-87
2023/06/20 08:03:50;;;;;;;;;;;;;;;35.09;31.33;99999.84;4489551;31;33817;-86
2023/06/20 08:06:18;;;;;;;;;;;;;;;35.46;30.08;100003.25;4489584;31;34886;-85
2023/06/20 08:08:45;;;;;;;;;;;;;;;35.88;29.32;100001.84;4496001;31;33345;-86
2023/06/20 08:11:12;;;;;;;;;;;;;;;36.41;28.80;100005.94;4493307;31;34923;-85
2023/06/20 08:13:40;;;;;;;;;;;;;;;36.40;28.08;99996.97;4484958;32;34082;-87
2023/06/20 08:16:07;;;;;;;;;;;;;;;37.22;27.94;100000.16;4457685;32;32835;-87
2023/06/20 08:18:37;;;;;;;;;;;;;;;37.33;27.16;99992.25;4495047;31;33583;-87
2023/06/20 08:21:04;;;;;;;;;;;;;;;37.58;27.15;99990.66;4487622;31;34190;-87
2023/06/20 08:23:31;;;;;;;;;;;;;;;37.77;26.16;99988.53;4487484;31;34115;-87
2023/06/20 08:25:59;;;;;;;;;;;;;;;37.56;26.95;99995.31;4494513;31;34435;-86
2023/06/20 08:28:26;;;;;;;;;;;;;;;36.99;27.50;99996.16;4490782;31;33261;-85
2023/06/20 08:30:54;;;;;;;;;;;;;;;37.53;26.50;99998.19;4489982;31;34450;-84
2023/06/20 08:33:21;;;;;;;;;;;;;;;37.89;26.40;99999.50;4492208;31;34054;-87
2023/06/20 08:35:50;;;;;;;;;;;;;;;37.66;27.12;99996.47;4487278;32;33898;-87
2023/06/20 08:38:17;;;;;;;;;;;;;;;37.62;27.31;99994.94;4488426;31;33029;-87
2023/06/20 08:40:46;;;;;;;11.40;6.68;;;;;;;37.06;27.38;99993.97;4486853;31;34784;-88
2023/06/20 08:43:17;;;;;;;14.93;7.28;;;;;;;37.32;26.15;99987.81;4492845;31;34602;-87
2023/06/20 08:45:45;;;;;;;13.02;7.18;;;;;;;37.33;26.70;99984.13;4486941;31;33847;-86
2023/06/20 08:48:12;;;;;;;8.45;6.30;;;;;;;37.72;26.56;99990.66;4476803;31;33269;-88
2023/06/20 08:50:40;;;;;;;9.45;6.82;;;;;;;38.03;26.83;99985.94;4489575;31;33730;-86
2023/06/20 08:53:09;;;;;;;;;;;;;;;37.86;26.97;99987.06;4483814;32;34494;-86
2023/06/20 08:55:37;;;;;;;;;;;;;;;37.64;27.92;99976.78;4470422;32;33734;-86
2023/06/20 08:58:08;;;;;;;;;;;;;;;37.51;27.44;99978.50;4471938;31;34112;-88
2023/06/20 09:00:36;;;;;;;;;;;;;;;37.77;26.87;99977.72;4487985;31;34109;-88
2023/06/20 09:03:04;;;;;;;;;;;;;;;37.49;26.88;99980.44;4487085;31;35161;-86
2023/06/20 09:05:32;;;;;;;;;;;;;;;37.30;26.83;99978.94;4490740;31;33928;-87
2023/06/20 09:07:59;;;;;;;;;;;;;;;37.10;26.85;99982.00;4483792;31;33330;-89
2023/06/20 09:10:27;;;;;;;;;;;;;;;36.86;27.02;99969.06;4483997;32;33905;-87
2023/06/20 09:12:56;;;;;;;;;;;;;;;36.39;28.24;99978.19;4473581;32;33868;-88
2023/06/20 09:15:25;;;;;;;;;;;;;;;36.69;28.13;99980.03;4496791;31;34157;-87
2023/06/20 09:17:59;;;;;;;;;;;;;;;36.73;28.31;99977.03;4489835;31;33005;-88
2023/06/20 09:20:31;;;;;;;;;;;;;;;36.38;28.24;99982.72;4483879;32;34581;-86
2023/06/20 09:22:59;;;;;;;;;;;;;;;35.87;28.27;99981.22;4483536;31;33908;-89
2023/06/20 09:25:30;;;;;;;;;;;;;;;36.38;28.55;99979.16;4496668;31;34172;-87
2023/06/20 09:27:57;;;;;;;;;;;;;;;35.82;29.98;99982.34;4475346;31;33192;-89
2023/06/20 09:30:28;;;;;;;;;;;;;;;35.02;30.00;99977.75;4497189;31;34897;-87
2023/06/20 09:32:57;;;;;;;;;;;;;;;35.72;29.28;99982.97;4489837;31;33650;-89
2023/06/20 09:35:25;;;;;;;;;;;;;;;35.54;28.86;99979.44;4485326;31;33883;-86
2023/06/20 09:37:53;;;;;;;;;;;;;;;35.71;28.81;99976.69;4497479;31;33301;-88
2023/06/20 09:40:20;;;;;;;;;;;;;;;35.94;29.22;99977.22;4494425;31;34810;-86
2023/06/20 09:42:47;;;;;;;;;;;;;;;36.17;28.02;99975.91;4486063;31;34325;-87
2023/06/20 09:45:16;;;;;;;;;;;;;;;34.02;32.49;99974.81;4472347;32;34930;-86
2023/06/20 09:47:44;;;;;;;;;;;;;;;34.35;31.51;99987.53;4476658;31;32318;-88
2023/06/20 09:50:15;;;;;;;;;;;;;;;35.43;28.94;99983.63;4485964;32;34902;-88
2023/06/20 09:52:44;;;;;;;;;;;;;;;35.26;28.24;99989.06;4496193;31;35510;-87
2023/06/20 09:55:12;;;;;;;;;;;;;;;35.58;29.04;99989.09;4474229;31;34097;-87
2023/06/20 09:57:43;;;;;;;;;;;;;;;35.75;27.45;99980.94;4499483;31;33618;-88
2023/06/20 10:00:17;;;;;;;;;;;;;;;35.98;27.25;99986.84;4497320;31;34795;-87
2023/06/20 10:02:45;;;;;;;;;;;;;;;36.02;26.32;99986.56;4490825;31;33945;-86
2023/06/20 10:05:16;;;;;;;;;;;;;;;35.86;25.00;99979.50;4485801;32;34440;-87
2023/06/20 10:07:45;;;;;;;;;;;;;;;34.38;27.85;99985.53;4488847;31;34245;-88
2023/06/20 10:10:13;;;;;;;;;;;;;;;35.04;27.60;99981.25;4485690;31;32781;-86
2023/06/20 10:12:41;;;;;;;;;;;;;;;35.69;26.64;99984.00;4481767;31;33916;-87
2023/06/20 10:15:09;;;;;;;;;;;;;;;35.14;26.57;99970.87;4495200;31;33663;-87
2023/06/20 10:17:40;;;;;;;;;;;;;;;35.05;26.88;99967.69;4483913;32;33316;-87
2023/06/20 10:20:08;;;;;;;;;;;;;;;35.56;25.92;99967.66;4492469;31;34199;-89
2023/06/20 10:22:36;;;;;;;;;;;;;;;35.83;26.19;99970.63;4491926;31;34669;-87
2023/06/20 10:25:14;;;;;;;;;;;;;;;36.57;24.70;99969.00;4485452;32;34740;-86
2023/06/20 10:28:02;;;;;;;;;;;;;;;36.33;25.28;99967.75;4475683;31;33421;-87
2023/06/20 10:30:53;;;;;;;;;;;;;;;35.95;27.71;99965.47;4492206;31;32904;-87
2023/06/20 10:33:26;;;;;;;;;;;;;;;36.68;26.44;99967.50;4492224;31;33916;-89
2023/06/20 10:35:58;;;;;;;;;;;;;;;36.90;25.91;99967.91;4487168;31;32481;-89
2023/06/20 10:38:26;;;;;;;;;;;;;;;35.82;24.96;99963.47;4491533;31;33610;-88
2023/06/20 10:41:07;;;;;;;;;;;;;;;35.79;25.86;99962.78;4494684;31;34022;-87
2023/06/20 10:43:47;;;;;;;;;;;;;;;35.58;26.30;99954.06;4485611;32;34222;-89
2023/06/20 10:46:14;;;;;;;;;;;;;;;35.31;26.41;99957.38;4485788;32;34884;-86
2023/06/20 10:48:42;;;;;;;;;;;;;;;35.70;25.98;99963.31;4485662;32;33664;-89
2023/06/20 10:51:09;;;;;;;;;;;;;;;35.36;26.24;99960.66;4460849;32;805552;-87
2023/06/20 10:53:36;;;;;;;;;;;;;;;35.24;27.80;99961.34;4487068;31;34710;-88
2023/06/20 10:56:04;;;;;;;;;;;;;;;35.76;26.29;99966.53;4494802;31;34383;-89
2023/06/20 10:58:32;;;;;;;;;;;;;;;35.95;24.19;99962.75;4485341;32;33688;-89
2023/06/20 11:01:00;;;;;;;;;;;;;;;36.01;24.25;99962.44;4485331;32;34320;-89
2023/06/20 11:03:27;;;;;;;;;;;;;;;35.82;24.22;99963.47;4485211;32;33855;-88
2023/06/20 11:05:55;;;;;;;;;;;;;;;35.81;24.87;99953.69;4485422;32;33687;-88
2023/06/20 11:08:26;;;;;;;;;;;;;;;35.54;26.00;99957.91;4491580;31;33475;-87
2023/06/20 11:10:53;;;;;;;;;;;;;;;35.72;26.61;99951.50;4474710;32;33560;-87
2023/06/20 11:13:21;;;;;;;;;;;;;;;34.64;28.07;99946.53;4498551;31;33730;-88
2023/06/20 11:15:49;;;;;;;;;;;;;;;33.38;30.24;99950.09;4485339;32;33726;-88
2023/06/20 11:18:16;;;;;;;;;;;;;;;33.48;30.00;99946.03;4485459;31;33108;-88
2023/06/20 11:20:45;;;;;;;;;;;;;;;33.77;29.42;99937.53;4491014;31;34300;-87
2023/06/20 11:23:12;;;;;;;;;;;;;;;33.69;29.84;99935.22;4476358;32;34020;-87
2023/06/20 11:25:41;;;;;;;;;;;;;;;33.89;28.64;99932.41;4486854;31;34819;-88
2023/06/20 11:28:12;;;;;;;;;;;;;;;34.07;27.63;99932.44;4485117;32;33176;-88
2023/06/20 11:30:41;;;;;;;;;;;;;;;34.74;26.43;99929.97;4495664;31;34876;-86
2023/06/20 11:33:09;;;;;;;;;;;;;;;34.02;28.09;99923.75;4475710;31;33979;-89
2023/06/20 11:35:52;;;;;;;;;;;;;;;33.43;29.46;99920.34;4488391;31;34601;-88
2023/06/20 11:38:24;;;;;;;;;;;;;;;33.28;31.80;99927.28;4492868;31;33416;-87
2023/06/20 11:41:03;;;;;;;;;;;;;;;33.74;31.59;99917.06;4485149;32;34181;-86
2023/06/20 11:43:37;;;;;;;;;;;;;;;33.72;31.70;99929.69;4487510;31;33992;-87
2023/06/20 11:46:05;;;;;;;;;;;;;;;34.03;27.85;99922.78;4478160;31;34183;-88
2023/06/20 11:48:49;;;;;;;;;;;;;;;34.96;27.34;99919.75;4474756;31;35514;-87
2023/06/20 11:51:24;;;;;;;;;;;;;;;34.80;25.84;99918.84;4495670;31;33890;-87
2023/06/20 11:54:01;;;;;;;;;;;;;;;35.28;28.02;99919.84;4489517;31;33888;-87
2023/06/20 11:56:29;;;;;;;;;;;;;;;35.21;28.13;99927.38;4492273;31;34420;-89
2023/06/20 11:58:56;;;;;;;;;;;;;;;36.03;26.98;99917.37;4496586;31;33769;-88
2023/06/20 12:01:24;;;;;;;;;;;;;;;35.73;26.73;99920.88;4494968;31;34816;-88
2023/06/20 12:04:05;;;;;;;;;;;;;;;36.30;24.98;99919.41;4489519;31;34328;-87
2023/06/20 12:06:33;;;;;;;;;;;;;;;36.45;23.92;99913.09;4491717;31;35351;-87
2023/06/20 12:09:07;;;;;;;;;;;;;;;36.31;25.00;99913.03;4496893;31;34046;-87
2023/06/20 12:11:36;;;;;;;;;;;;;;;36.01;25.30;99919.28;4487441;31;33665;-86
2023/06/20 12:14:03;;;;;;;;;;;;;;;36.05;25.19;99910.06;4479868;31;34591;-87
2023/06/20 12:16:31;;;;;;;;;;;;;;;36.63;24.27;99904.81;4491953;31;33755;-87
2023/06/20 12:18:59;;;;;;;;;;;;;;;36.39;24.69;99891.84;4489165;31;33820;-86
2023/06/20 12:21:27;;;;;;;;;;;;;;;35.23;25.81;99905.75;4491033;31;34887;-87
2023/06/20 12:23:55;;;;;;;;;;;;;;;34.60;26.75;99898.38;4477383;31;33737;-87
2023/06/20 12:26:23;;;;;;;;;;;;;;;35.09;27.47;99902.94;4495978;31;34782;-87
2023/06/20 12:28:50;;;;;;;;;;;;;;;36.07;24.54;99896.50;4489357;31;33326;-87
2023/06/20 12:31:17;;;;;;;;;;;;;;;34.74;26.23;99885.06;4495384;31;33602;-88
2023/06/20 12:33:45;;;;;;;;;;;;;;;34.33;26.34;99892.66;4492823;31;34197;-86
2023/06/20 12:36:12;;;;;;;;;;;;;;;34.46;26.21;99882.94;4497298;31;34804;-90
2023/06/20 12:38:39;;;;;;;;;;;;;;;35.42;24.79;99887.59;4490458;31;33567;-86
2023/06/20 12:41:06;;;;;;;;;;;;;;;35.85;25.07;99880.72;4488701;31;33799;-86
2023/06/20 12:43:34;;;;;;;;;;;;;;;36.22;24.89;99874.91;4485185;32;34346;-90
2023/06/20 12:46:01;;;;;;;;;;;;;;;35.09;26.01;99876.03;4490440;31;34743;-87
2023/06/20 12:48:29;;;;;;;;;;;;;;;35.07;25.54;99875.25;4491186;31;33494;-88
2023/06/20 12:50:56;;;;;;;;;;;;;;;34.27;26.82;99873.19;4484484;31;34107;-87
2023/06/20 12:53:26;;;;;;;;;;;;;;;34.32;26.72;99872.94;4470854;32;34023;-89